Time;durP1;ratioP1;P1;durP2;ratioP2;P2;SDS_P1;SDS_P2;PMS_P1;PMS_P2;Temp;Humidity;BMP_temperature;BMP_pressure;BME280_temperature;BME280_humidity;BME280_pressure;Samples;Min_cycle;Max_cycle;Signal;HPM_P1;HPM_P2
2022/06/11 00:01:51;;;;;;;0.00;0.00;;;;;;;;;;5011263;28;20113;-59
2022/06/11 00:04:20;;;;;;;0.00;0.00;;;;;;;;;;5010552;28;20055;-59
2022/06/11 00:06:49;;;;;;;0.00;0.00;;;;;;;;;;5016480;28;20096;-59
2022/06/11 00:09:15;;;;;;;;;;;;;;;;;;5024234;28;20116;-59
2022/06/11 00:11:42;;;;;;;0.00;0.00;;;;;;;;;;5020373;28;44150;-59
2022/06/11 00:14:09;;;;;;;0.00;0.00;;;;;;;;;;5012869;28;20046;-59
2022/06/11 00:16:35;;;;;;;0.00;0.00;;;;;;;;;;5019538;28;20128;-59
2022/06/11 00:19:02;;;;;;;0.00;0.00;;;;;;;;;;5018310;28;20058;-59
2022/06/11 00:21:31;;;;;;;0.00;0.00;;;;;;;;;;5019586;28;20101;-59
2022/06/11 00:23:57;;;;;;;0.00;0.00;;;;;;;;;;5028233;28;20062;-59
2022/06/11 00:26:23;;;;;;;0.00;0.00;;;;;;;;;;5006947;28;20621;-59
2022/06/11 00:28:50;;;;;;;0.00;0.00;;;;;;;;;;5015122;28;20086;-59
2022/06/11 00:31:17;;;;;;;0.15;0.10;;;;;;;;;;5013993;28;20913;-59
2022/06/11 00:33:43;;;;;;;0.05;0.03;;;;;;;;;;5025921;28;20058;-59
2022/06/11 00:36:10;;;;;;;0.00;0.00;;;;;;;;;;5024799;28;20062;-59
2022/06/11 00:38:37;;;;;;;0.05;0.05;;;;;;;;;;5018624;28;20054;-59
2022/06/11 00:41:04;;;;;;;0.00;0.00;;;;;;;;;;5022998;28;20567;-59
2022/06/11 00:43:31;;;;;;;0.00;0.00;;;;;;;;;;5020397;28;20061;-59
2022/06/11 00:46:00;;;;;;;0.00;0.00;;;;;;;;;;5025200;28;20084;-58
2022/06/11 00:48:29;;;;;;;0.00;0.00;;;;;;;;;;5024045;28;20140;-59
2022/06/11 00:51:05;;;;;;;0.00;0.00;;;;;;;;;;5026615;28;20142;-59
2022/06/11 00:53:39;;;;;;;0.00;0.00;;;;;;;;;;5020687;28;20077;-58
2022/06/11 00:56:16;;;;;;;0.00;0.00;;;;;;;;;;5023278;28;20513;-59
2022/06/11 00:58:45;;;;;;;0.03;0.03;;;;;;;;;;5021557;28;20054;-59
2022/06/11 01:01:13;;;;;;;0.00;0.00;;;;;;;;;;5018737;28;20084;-59
2022/06/11 01:03:41;;;;;;;1.55;0.32;;;;;;;;;;5023457;28;20061;-59
2022/06/11 01:06:08;;;;;;;;;;;;;;;;;;5022512;28;20050;-59
2022/06/11 01:08:40;;;;;;;0.00;0.00;;;;;;;;;;5022790;28;45800;-59
2022/06/11 01:11:09;;;;;;;0.00;0.00;;;;;;;;;;5025193;28;20558;-58
2022/06/11 01:13:55;;;;;;;0.00;0.00;;;;;;;;;;5032170;28;20605;-58
2022/06/11 01:16:24;;;;;;;0.00;0.00;;;;;;;;;;5018183;28;20109;-59
2022/06/11 01:18:51;;;;;;;0.00;0.00;;;;;;;;;;5014077;28;20057;-58
2022/06/11 01:21:30;;;;;;;0.00;0.00;;;;;;;;;;5019988;28;20117;-58
2022/06/11 01:24:05;;;;;;;0.00;0.00;;;;;;;;;;5014775;28;20054;-59
2022/06/11 01:26:32;;;;;;;0.00;0.00;;;;;;;;;;5017787;28;20626;-59
2022/06/11 01:29:10;;;;;;;0.00;0.00;;;;;;;;;;5012019;28;20109;-59
2022/06/11 01:31:45;;;;;;;0.00;0.00;;;;;;;;;;5014588;28;20564;-58
2022/06/11 01:34:15;;;;;;;0.00;0.00;;;;;;;;;;5014898;28;20105;-59
2022/06/11 01:36:43;;;;;;;0.00;0.00;;;;;;;;;;5016468;28;20088;-59
2022/06/11 01:39:09;;;;;;;;;;;;;;;;;;5024129;28;20089;-58
2022/06/11 01:41:39;;;;;;;0.00;0.00;;;;;;;;;;5014229;28;44840;-59
2022/06/11 01:44:10;;;;;;;0.00;0.00;;;;;;;;;;5016129;28;20108;-59
2022/06/11 01:46:38;;;;;;;0.30;0.10;;;;;;;;;;5015177;28;20050;-59
2022/06/11 01:49:07;;;;;;;0.00;0.00;;;;;;;;;;5018671;28;20124;-59
2022/06/11 01:51:48;;;;;;;0.00;0.00;;;;;;;;;;5017537;28;20066;-58
2022/06/11 01:54:26;;;;;;;0.22;0.20;;;;;;;;;;5018653;28;20058;-59
2022/06/11 01:56:56;;;;;;;0.00;0.00;;;;;;;;;;5013647;28;20112;-59
2022/06/11 01:59:41;;;;;;;0.00;0.00;;;;;;;;;;5011553;28;20050;-59
2022/06/11 02:02:10;;;;;;;0.00;0.00;;;;;;;;;;5012843;28;20073;-59
2022/06/11 02:04:40;;;;;;;0.00;0.00;;;;;;;;;;5019236;28;20108;-59
2022/06/11 02:07:15;;;;;;;0.00;0.00;;;;;;;;;;5009548;28;20054;-59
2022/06/11 02:10:01;;;;;;;0.00;0.00;;;;;;;;;;5014709;28;20129;-59
2022/06/11 02:12:37;;;;;;;0.00;0.00;;;;;;;;;;5022882;28;20508;-59
2022/06/11 02:15:21;;;;;;;0.10;0.10;;;;;;;;;;5012776;28;20059;-59
2022/06/11 02:17:49;;;;;;;0.00;0.00;;;;;;;;;;5018483;28;20081;-58
2022/06/11 02:20:18;;;;;;;0.00;0.00;;;;;;;;;;5022232;28;20089;-58
2022/06/11 02:22:46;;;;;;;0.00;0.00;;;;;;;;;;5018316;28;20508;-59
2022/06/11 02:25:13;;;;;;;;;;;;;;;;;;5018920;28;20551;-59
2022/06/11 02:27:40;;;;;;;0.00;0.00;;;;;;;;;;5016817;28;43699;-59
2022/06/11 02:30:09;;;;;;;0.00;0.00;;;;;;;;;;5023446;28;20069;-58
2022/06/11 02:32:35;;;;;;;0.00;0.00;;;;;;;;;;5021483;28;20066;-59
2022/06/11 02:35:05;;;;;;;0.08;0.05;;;;;;;;;;5014456;28;20058;-59
2022/06/11 02:37:34;;;;;;;0.00;0.00;;;;;;;;;;5017939;28;20105;-59
2022/06/11 02:40:04;;;;;;;1.10;0.10;;;;;;;;;;5020369;28;21237;-59
2022/06/11 02:42:30;;;;;;;0.00;0.00;;;;;;;;;;5019528;28;20051;-59
2022/06/11 02:44:57;;;;;;;0.00;0.00;;;;;;;;;;5017923;28;20086;-59
2022/06/11 02:47:23;;;;;;;0.00;0.00;;;;;;;;;;5017402;28;20058;-59
2022/06/11 02:49:50;;;;;;;0.00;0.00;;;;;;;;;;5014804;28;21174;-59
2022/06/11 02:52:21;;;;;;;0.10;0.10;;;;;;;;;;5021418;28;20062;-59
2022/06/11 02:54:49;;;;;;;0.00;0.00;;;;;;;;;;5019610;28;20089;-59
2022/06/11 02:57:17;;;;;;;0.00;0.00;;;;;;;;;;5014149;28;20112;-59
2022/06/11 02:59:44;;;;;;;0.00;0.00;;;;;;;;;;5015299;28;20957;-59
2022/06/11 03:02:11;;;;;;;0.00;0.00;;;;;;;;;;5020005;28;21029;-59
2022/06/11 03:04:38;;;;;;;0.00;0.00;;;;;;;;;;5021458;28;20069;-59
2022/06/11 03:07:05;;;;;;;0.00;0.00;;;;;;;;;;5007681;28;20058;-59
2022/06/11 03:09:33;;;;;;;0.00;0.00;;;;;;;;;;5022373;28;20050;-59
2022/06/11 03:12:00;;;;;;;0.00;0.00;;;;;;;;;;5012373;28;20065;-58
2022/06/11 03:14:26;;;;;;;0.00;0.00;;;;;;;;;;5014796;28;20494;-59
2022/06/11 03:16:52;;;;;;;0.00;0.00;;;;;;;;;;5011692;28;20047;-59
2022/06/11 03:19:20;;;;;;;0.20;0.10;;;;;;;;;;5017690;28;20536;-59
2022/06/11 03:21:47;;;;;;;0.20;0.10;;;;;;;;;;5019181;28;20054;-58
2022/06/11 03:24:14;;;;;;;0.00;0.00;;;;;;;;;;5021937;28;20640;-59
2022/06/11 03:26:40;;;;;;;0.00;0.00;;;;;;;;;;5013943;28;20083;-59
2022/06/11 03:29:08;;;;;;;0.10;0.10;;;;;;;;;;5009628;28;20206;-59
2022/06/11 03:31:34;;;;;;;0.00;0.00;;;;;;;;;;5009959;28;20054;-59
2022/06/11 03:34:01;;;;;;;0.00;0.00;;;;;;;;;;5010444;28;20157;-59
2022/06/11 03:36:27;;;;;;;0.00;0.00;;;;;;;;;;5013109;28;20049;-59
2022/06/11 03:38:54;;;;;;;0.00;0.00;;;;;;;;;;5021180;28;20061;-58
2022/06/11 03:41:21;;;;;;;1.35;0.25;;;;;;;;;;5023044;28;20054;-63
2022/06/11 03:43:49;;;;;;;0.25;0.10;;;;;;;;;;5012788;28;20057;-58
2022/06/11 03:46:16;;;;;;;0.00;0.00;;;;;;;;;;5015097;28;20137;-58
2022/06/11 03:48:43;;;;;;;0.00;0.00;;;;;;;;;;5017428;28;20049;-58
2022/06/11 03:51:09;;;;;;;0.00;0.00;;;;;;;;;;5020834;28;20116;-59
2022/06/11 03:53:37;;;;;;;0.00;0.00;;;;;;;;;;5012795;28;20050;-59
2022/06/11 03:56:04;;;;;;;0.00;0.00;;;;;;;;;;5020437;28;20100;-59
2022/06/11 03:58:30;;;;;;;0.00;0.00;;;;;;;;;;5015476;28;20628;-58
2022/06/11 04:01:15;;;;;;;0.00;0.00;;;;;;;;;;5021759;28;20054;-58
2022/06/11 04:03:49;;;;;;;0.00;0.00;;;;;;;;;;5009663;28;20050;-59
2022/06/11 04:06:18;;;;;;;0.00;0.00;;;;;;;;;;5017286;28;20070;-59
2022/06/11 04:08:44;;;;;;;;;;;;;;;;;;5024061;28;20061;-59
2022/06/11 04:11:11;;;;;;;0.00;0.00;;;;;;;;;;5022090;28;45561;-58
2022/06/11 04:13:38;;;;;;;0.82;0.32;;;;;;;;;;5019096;28;20543;-58
2022/06/11 04:16:05;;;;;;;0.00;0.00;;;;;;;;;;5014296;28;20058;-59
2022/06/11 04:18:36;;;;;;;0.00;0.00;;;;;;;;;;5016205;28;20269;-59
2022/06/11 04:21:04;;;;;;;0.00;0.00;;;;;;;;;;5028723;28;20057;-59
2022/06/11 04:23:31;;;;;;;0.00;0.00;;;;;;;;;;5020585;28;20062;-59
2022/06/11 04:25:58;;;;;;;0.00;0.00;;;;;;;;;;5018486;28;20105;-59
2022/06/11 04:28:28;;;;;;;0.00;0.00;;;;;;;;;;5023102;28;20492;-59
2022/06/11 04:30:55;;;;;;;0.00;0.00;;;;;;;;;;5017969;28;20301;-59
2022/06/11 04:33:21;;;;;;;0.00;0.00;;;;;;;;;;5020282;28;20117;-59
2022/06/11 04:35:48;;;;;;;0.00;0.00;;;;;;;;;;5010046;28;20088;-59
2022/06/11 04:38:15;;;;;;;0.00;0.00;;;;;;;;;;5015880;28;20918;-59
2022/06/11 04:40:42;;;;;;;0.00;0.00;;;;;;;;;;5014954;28;20084;-59
2022/06/11 04:43:08;;;;;;;0.00;0.00;;;;;;;;;;5019960;28;20077;-59
2022/06/11 04:45:35;;;;;;;0.47;0.20;;;;;;;;;;5017427;28;20437;-59
2022/06/11 04:48:02;;;;;;;0.00;0.00;;;;;;;;;;5016805;28;20077;-59
2022/06/11 04:50:28;;;;;;;0.00;0.00;;;;;;;;;;5012798;28;20054;-59
2022/06/11 04:52:55;;;;;;;0.00;0.00;;;;;;;;;;5018585;28;20142;-59
2022/06/11 04:55:21;;;;;;;2.00;1.85;;;;;;;;;;5020364;28;20105;-59
2022/06/11 04:57:48;;;;;;;0.00;0.00;;;;;;;;;;5015745;28;20101;-59
2022/06/11 05:00:18;;;;;;;0.00;0.00;;;;;;;;;;5016891;28;20053;-59
2022/06/11 05:02:45;;;;;;;0.00;0.00;;;;;;;;;;5017673;28;20528;-59
2022/06/11 05:05:12;;;;;;;0.00;0.00;;;;;;;;;;5018441;28;20057;-59
2022/06/11 05:07:39;;;;;;;0.00;0.00;;;;;;;;;;5011401;28;20058;-58
2022/06/11 05:10:07;;;;;;;0.00;0.00;;;;;;;;;;5015079;28;20050;-59
2022/06/11 05:12:33;;;;;;;0.53;0.53;;;;;;;;;;5026401;28;20563;-59
2022/06/11 05:15:00;;;;;;;0.00;0.00;;;;;;;;;;5009269;28;20109;-59
2022/06/11 05:17:26;;;;;;;0.15;0.10;;;;;;;;;;5013102;28;20112;-59
2022/06/11 05:19:53;;;;;;;0.00;0.00;;;;;;;;;;5022610;28;20051;-59
2022/06/11 05:22:19;;;;;;;0.05;0.00;;;;;;;;;;5020769;28;20089;-58
2022/06/11 05:24:46;;;;;;;0.00;0.00;;;;;;;;;;5025514;28;20062;-59
2022/06/11 05:27:14;;;;;;;0.00;0.00;;;;;;;;;;5018626;28;20053;-59
2022/06/11 05:29:47;;;;;;;0.00;0.00;;;;;;;;;;5015523;28;21152;-59
2022/06/11 05:32:16;;;;;;;0.00;0.00;;;;;;;;;;5014545;28;20521;-58
2022/06/11 05:34:43;;;;;;;0.00;0.00;;;;;;;;;;5016963;28;20097;-59
2022/06/11 05:37:10;;;;;;;0.00;0.00;;;;;;;;;;5011581;28;20878;-59
2022/06/11 05:39:38;;;;;;;1.45;1.38;;;;;;;;;;5013034;28;20117;-59
2022/06/11 05:42:05;;;;;;;0.00;0.00;;;;;;;;;;5028404;28;20152;-59
2022/06/11 05:44:31;;;;;;;0.00;0.00;;;;;;;;;;5028960;28;20128;-59
2022/06/11 05:46:58;;;;;;;0.00;0.00;;;;;;;;;;5030075;28;20104;-58
2022/06/11 05:49:26;;;;;;;0.00;0.00;;;;;;;;;;5029649;28;20053;-59
2022/06/11 05:51:53;;;;;;;;;;;;;;;;;;5011050;28;20066;-58
2022/06/11 05:54:21;;;;;;;0.00;0.00;;;;;;;;;;5009475;28;44781;-59
2022/06/11 05:56:48;;;;;;;0.00;0.00;;;;;;;;;;5011411;28;20050;-59
2022/06/11 05:59:17;;;;;;;0.00;0.00;;;;;;;;;;5009588;28;20077;-59
2022/06/11 06:01:44;;;;;;;0.08;0.08;;;;;;;;;;5015880;28;20097;-59
2022/06/11 06:04:11;;;;;;;0.28;0.28;;;;;;;;;;5015055;28;20058;-58
2022/06/11 06:06:37;;;;;;;0.00;0.00;;;;;;;;;;5029920;28;20050;-59
2022/06/11 06:09:05;;;;;;;0.00;0.00;;;;;;;;;;5028141;28;20054;-59
2022/06/11 06:11:32;;;;;;;0.00;0.00;;;;;;;;;;5013209;28;20058;-58
2022/06/11 06:13:58;;;;;;;0.70;0.70;;;;;;;;;;5011184;28;20140;-59
2022/06/11 06:16:26;;;;;;;1.15;0.17;;;;;;;;;;5020399;28;20053;-59
2022/06/11 06:18:53;;;;;;;0.00;0.00;;;;;;;;;;5029778;28;20139;-59
2022/06/11 06:21:21;;;;;;;0.10;0.10;;;;;;;;;;5023001;28;20544;-59
2022/06/11 06:23:48;;;;;;;0.55;0.55;;;;;;;;;;5016243;28;20061;-59
2022/06/11 06:26:14;;;;;;;0.90;0.20;;;;;;;;;;5028475;28;20050;-58
2022/06/11 06:28:41;;;;;;;0.00;0.00;;;;;;;;;;5031334;28;20543;-58
2022/06/11 06:31:10;;;;;;;5.15;1.10;;;;;;;;;;5017195;28;20517;-58
2022/06/11 06:33:37;;;;;;;0.00;0.00;;;;;;;;;;5013378;28;20058;-58
2022/06/11 06:36:05;;;;;;;0.10;0.10;;;;;;;;;;5012809;28;20105;-59
2022/06/11 06:38:32;;;;;;;0.00;0.00;;;;;;;;;;5016805;28;20058;-58
2022/06/11 06:40:58;;;;;;;0.00;0.00;;;;;;;;;;5017300;28;20100;-59
2022/06/11 06:43:25;;;;;;;0.00;0.00;;;;;;;;;;5029244;28;20562;-58
2022/06/11 06:45:51;;;;;;;0.00;0.00;;;;;;;;;;5022662;28;20073;-59
2022/06/11 06:48:17;;;;;;;0.47;0.47;;;;;;;;;;5008186;28;20046;-59
2022/06/11 06:50:44;;;;;;;0.00;0.00;;;;;;;;;;5021635;28;20117;-58
2022/06/11 06:53:11;;;;;;;0.00;0.00;;;;;;;;;;5023037;28;20055;-58
2022/06/11 06:55:38;;;;;;;0.00;0.00;;;;;;;;;;5015922;28;20058;-58
2022/06/11 06:58:04;;;;;;;0.50;0.28;;;;;;;;;;5023502;28;20113;-58
2022/06/11 07:00:30;;;;;;;0.00;0.00;;;;;;;;;;5023967;28;20056;-59
2022/06/11 07:02:57;;;;;;;0.00;0.00;;;;;;;;;;5028624;28;20057;-59
2022/06/11 07:05:25;;;;;;;0.00;0.00;;;;;;;;;;5024762;28;20493;-59
2022/06/11 07:07:52;;;;;;;0.70;0.45;;;;;;;;;;5009006;28;20060;-59
2022/06/11 07:10:20;;;;;;;0.00;0.00;;;;;;;;;;5015854;28;20058;-59
2022/06/11 07:12:46;;;;;;;0.00;0.00;;;;;;;;;;5009202;28;20113;-59
2022/06/11 07:15:13;;;;;;;0.47;0.15;;;;;;;;;;5008569;28;20055;-59
2022/06/11 07:17:43;;;;;;;0.00;0.00;;;;;;;;;;5008869;28;20055;-60
2022/06/11 07:20:17;;;;;;;0.00;0.00;;;;;;;;;;5008226;28;20106;-59
2022/06/11 07:22:49;;;;;;;0.20;0.10;;;;;;;;;;5008869;28;20058;-59
2022/06/11 07:25:16;;;;;;;0.00;0.00;;;;;;;;;;5008537;28;20054;-59
2022/06/11 07:27:44;;;;;;;0.20;0.17;;;;;;;;;;5015180;28;20053;-59
2022/06/11 07:30:13;;;;;;;0.20;0.20;;;;;;;;;;5022999;28;20108;-59
2022/06/11 07:32:40;;;;;;;0.00;0.00;;;;;;;;;;5008848;28;20054;-59
2022/06/11 07:35:08;;;;;;;0.00;0.00;;;;;;;;;;5009137;28;20081;-59
2022/06/11 07:37:35;;;;;;;0.00;0.00;;;;;;;;;;5024077;28;20096;-62
2022/06/11 07:40:03;;;;;;;0.32;0.32;;;;;;;;;;5014930;28;20055;-60
2022/06/11 07:42:29;;;;;;;0.00;0.00;;;;;;;;;;5017250;28;20478;-60
2022/06/11 07:44:55;;;;;;;0.00;0.00;;;;;;;;;;5013918;28;20117;-60
2022/06/11 07:50:07;;;;;;;0.00;0.00;;;;;;;;;;5006504;28;20057;-60
2022/06/11 07:52:34;;;;;;;0.00;0.00;;;;;;;;;;5006307;28;20128;-60
2022/06/11 07:55:00;;;;;;;0.00;0.00;;;;;;;;;;5015951;28;20114;-60
2022/06/11 07:57:27;;;;;;;0.00;0.00;;;;;;;;;;5020608;28;20117;-60
2022/06/11 07:59:53;;;;;;;0.10;0.00;;;;;;;;;;5016715;28;20562;-60
2022/06/11 08:02:19;;;;;;;0.00;0.00;;;;;;;;;;5015358;28;20504;-60
2022/06/11 08:04:52;;;;;;;0.60;0.43;;;;;;;;;;5010672;28;20094;-60
2022/06/11 08:07:19;;;;;;;0.00;0.00;;;;;;;;;;5007048;28;20121;-60
2022/06/11 08:09:45;;;;;;;0.45;0.10;;;;;;;;;;5007656;28;20057;-61
2022/06/11 08:12:11;;;;;;;0.00;0.00;;;;;;;;;;5013607;28;20576;-60
2022/06/11 08:14:38;;;;;;;0.00;0.00;;;;;;;;;;5017797;28;20074;-60
2022/06/11 08:17:04;;;;;;;0.00;0.00;;;;;;;;;;5007598;28;20062;-60
2022/06/11 08:19:31;;;;;;;0.00;0.00;;;;;;;;;;5010546;28;20140;-59
2022/06/11 08:21:57;;;;;;;0.08;0.08;;;;;;;;;;5018081;28;20053;-58
2022/06/11 08:24:23;;;;;;;0.00;0.00;;;;;;;;;;5015536;28;20063;-58
2022/06/11 08:26:50;;;;;;;0.00;0.00;;;;;;;;;;5012115;28;20499;-58
2022/06/11 08:29:16;;;;;;;0.00;0.00;;;;;;;;;;5010531;28;20117;-59
2022/06/11 08:31:43;;;;;;;0.20;0.13;;;;;;;;;;5014391;28;20058;-58
2022/06/11 08:34:09;;;;;;;0.00;0.00;;;;;;;;;;5014103;28;20064;-58
2022/06/11 08:36:36;;;;;;;0.00;0.00;;;;;;;;;;5027641;28;20514;-58
2022/06/11 08:39:02;;;;;;;0.00;0.00;;;;;;;;;;5016340;28;20497;-59
2022/06/11 08:41:35;;;;;;;0.20;0.20;;;;;;;;;;5019396;28;20058;-58
2022/06/11 08:44:07;;;;;;;0.00;0.00;;;;;;;;;;5007513;28;20058;-58
2022/06/11 08:46:35;;;;;;;0.00;0.00;;;;;;;;;;5010156;28;20053;-58
2022/06/11 08:49:02;;;;;;;0.00;0.00;;;;;;;;;;5018248;28;20057;-59
2022/06/11 08:51:41;;;;;;;0.00;0.00;;;;;;;;;;5017170;28;20058;-59
2022/06/11 08:54:10;;;;;;;0.85;0.85;;;;;;;;;;5015082;28;20089;-59
2022/06/11 08:56:44;;;;;;;0.00;0.00;;;;;;;;;;5014601;28;20077;-59
2022/06/11 08:59:23;;;;;;;0.00;0.00;;;;;;;;;;5011615;28;20081;-59
2022/06/11 09:01:53;;;;;;;0.00;0.00;;;;;;;;;;5008418;28;20054;-59
2022/06/11 09:04:44;;;;;;;0.00;0.00;;;;;;;;;;5014632;28;20059;-59
2022/06/11 09:07:13;;;;;;;0.00;0.00;;;;;;;;;;5016603;28;20054;-59
2022/06/11 09:10:03;;;;;;;0.00;0.00;;;;;;;;;;5017511;28;20049;-59
2022/06/11 09:12:48;;;;;;;0.00;0.00;;;;;;;;;;5017716;28;20205;-59
2022/06/11 09:15:26;;;;;;;0.22;0.20;;;;;;;;;;5014602;28;20047;-59
2022/06/11 09:17:53;;;;;;;0.05;0.05;;;;;;;;;;5020938;28;20509;-59
2022/06/11 09:20:19;;;;;;;0.00;0.00;;;;;;;;;;5008963;28;20133;-59
2022/06/11 09:23:07;;;;;;;0.00;0.00;;;;;;;;;;5011373;28;20089;-59
2022/06/11 09:25:52;;;;;;;1.98;0.90;;;;;;;;;;5014893;28;20555;-59
2022/06/11 09:28:39;;;;;;;0.20;0.20;;;;;;;;;;5009512;28;20119;-59
2022/06/11 09:31:17;;;;;;;1.02;0.80;;;;;;;;;;5020202;28;20058;-59
2022/06/11 09:33:51;;;;;;;1.55;0.80;;;;;;;;;;5017440;28;20049;-59
2022/06/11 09:36:21;;;;;;;0.00;0.00;;;;;;;;;;5010306;28;20109;-59
2022/06/11 09:39:11;;;;;;;0.00;0.00;;;;;;;;;;5010861;28;20055;-59
2022/06/11 09:41:37;;;;;;;0.00;0.00;;;;;;;;;;5017212;28;20504;-59
2022/06/11 09:44:27;;;;;;;0.00;0.00;;;;;;;;;;5010922;28;20109;-59
2022/06/11 09:46:57;;;;;;;0.00;0.00;;;;;;;;;;5010342;28;20063;-59
2022/06/11 09:49:42;;;;;;;0.00;0.00;;;;;;;;;;5010992;28;20054;-60
2022/06/11 09:52:13;;;;;;;0.00;0.00;;;;;;;;;;5010022;28;20062;-60
2022/06/11 09:54:50;;;;;;;0.00;0.00;;;;;;;;;;5009807;28;20575;-60
2022/06/11 09:57:23;;;;;;;0.00;0.00;;;;;;;;;;5013568;28;20058;-59
2022/06/11 09:59:55;;;;;;;0.00;0.00;;;;;;;;;;5025756;28;20551;-60
2022/06/11 10:02:38;;;;;;;1.38;0.55;;;;;;;;;;5010050;28;20051;-60
2022/06/11 10:05:14;;;;;;;2.28;0.30;;;;;;;;;;5009722;28;20596;-60
2022/06/11 10:07:43;;;;;;;0.00;0.00;;;;;;;;;;5010387;28;20496;-59
2022/06/11 10:10:13;;;;;;;0.00;0.00;;;;;;;;;;5009226;28;20587;-60
2022/06/11 10:13:05;;;;;;;0.00;0.00;;;;;;;;;;5010643;28;20109;-61
2022/06/11 10:15:38;;;;;;;0.00;0.00;;;;;;;;;;5017987;28;20060;-60
2022/06/11 10:18:17;;;;;;;0.00;0.00;;;;;;;;;;5021259;28;20049;-60
2022/06/11 10:20:46;;;;;;;0.00;0.00;;;;;;;;;;5019355;28;20144;-60
2022/06/11 10:23:15;;;;;;;0.00;0.00;;;;;;;;;;5018488;28;20516;-61
2022/06/11 10:25:50;;;;;;;0.10;0.10;;;;;;;;;;5016835;28;20104;-61
2022/06/11 10:28:28;;;;;;;0.00;0.00;;;;;;;;;;5019701;28;20124;-60
2022/06/11 10:30:55;;;;;;;0.00;0.00;;;;;;;;;;5021037;28;20548;-60
2022/06/11 10:33:30;;;;;;;0.00;0.00;;;;;;;;;;5010525;28;20109;-59
2022/06/11 10:35:59;;;;;;;0.08;0.08;;;;;;;;;;5009633;28;20062;-60
2022/06/11 10:38:34;;;;;;;0.80;0.57;;;;;;;;;;5017641;28;20555;-60
2022/06/11 10:41:01;;;;;;;0.00;0.00;;;;;;;;;;5018593;28;20574;-60
2022/06/11 10:43:32;;;;;;;0.93;0.20;;;;;;;;;;5010766;28;20062;-60
2022/06/11 10:46:00;;;;;;;0.90;0.90;;;;;;;;;;5014100;28;20054;-59
2022/06/11 10:48:26;;;;;;;;;;;;;;;;;;5018600;28;20099;-59
2022/06/11 10:50:53;;;;;;;0.00;0.00;;;;;;;;;;5024065;28;46011;-60
2022/06/11 10:53:25;;;;;;;0.00;0.00;;;;;;;;;;5015083;28;20058;-60
2022/06/11 10:55:54;;;;;;;0.00;0.00;;;;;;;;;;5019595;28;20058;-60
2022/06/11 10:58:23;;;;;;;0.00;0.00;;;;;;;;;;5010576;28;20576;-61
2022/06/11 11:00:53;;;;;;;1.15;0.38;;;;;;;;;;5017776;28;20058;-62
2022/06/11 11:03:38;;;;;;;0.00;0.00;;;;;;;;;;5014138;28;20116;-60
2022/06/11 11:06:06;;;;;;;0.00;0.00;;;;;;;;;;5013451;28;20058;-59
2022/06/11 11:08:33;;;;;;;0.57;0.40;;;;;;;;;;5016385;28;20140;-60
2022/06/11 11:11:00;;;;;;;0.00;0.00;;;;;;;;;;5009039;28;20113;-59
2022/06/11 11:13:32;;;;;;;0.65;0.57;;;;;;;;;;5009265;28;20125;-59
2022/06/11 11:16:01;;;;;;;0.10;0.10;;;;;;;;;;5013975;28;20061;-59
2022/06/11 11:18:32;;;;;;;0.00;0.00;;;;;;;;;;5009605;28;20066;-59
2022/06/11 11:20:59;;;;;;;0.10;0.10;;;;;;;;;;5009138;28;20105;-59
2022/06/11 11:23:33;;;;;;;0.03;0.03;;;;;;;;;;5009121;28;20062;-59
2022/06/11 11:26:19;;;;;;;0.00;0.00;;;;;;;;;;5008999;28;20513;-59
2022/06/11 11:28:52;;;;;;;0.80;0.50;;;;;;;;;;5008610;28;20077;-59
2022/06/11 11:31:27;;;;;;;0.73;0.45;;;;;;;;;;5009365;28;20054;-59
2022/06/11 11:33:58;;;;;;;0.00;0.00;;;;;;;;;;5009839;28;20050;-59
2022/06/11 11:36:26;;;;;;;5.93;1.27;;;;;;;;;;5010089;28;20105;-59
2022/06/11 11:39:11;;;;;;;0.43;0.17;;;;;;;;;;5008844;28;20052;-59
2022/06/11 11:41:38;;;;;;;0.38;0.25;;;;;;;;;;5009219;28;20129;-59
2022/06/11 11:44:04;;;;;;;0.00;0.00;;;;;;;;;;5009335;28;20062;-58
2022/06/11 11:46:32;;;;;;;4.63;0.43;;;;;;;;;;5009578;28;20154;-59
2022/06/11 11:48:59;;;;;;;;;;;;;;;;;;5010113;28;20061;-59
2022/06/11 11:51:43;;;;;;;0.15;0.15;;;;;;;;;;5007510;28;46161;-59
2022/06/11 11:54:14;;;;;;;0.00;0.00;;;;;;;;;;5009164;28;20050;-59
2022/06/11 11:56:44;;;;;;;0.00;0.00;;;;;;;;;;5009684;28;20473;-59
2022/06/11 11:59:31;;;;;;;0.00;0.00;;;;;;;;;;5008429;28;20082;-59
2022/06/11 12:02:04;;;;;;;0.00;0.00;;;;;;;;;;5009009;28;20057;-59
2022/06/11 12:04:35;;;;;;;0.00;0.00;;;;;;;;;;5008410;28;20066;-59
2022/06/11 12:07:05;;;;;;;0.28;0.10;;;;;;;;;;5008652;28;20078;-59
2022/06/11 12:09:37;;;;;;;0.15;0.15;;;;;;;;;;5009517;28;20088;-59
2022/06/11 12:12:12;;;;;;;1.27;0.13;;;;;;;;;;5008836;28;20141;-59
2022/06/11 12:14:45;;;;;;;1.30;0.32;;;;;;;;;;5008947;28;20054;-58
2022/06/11 12:17:30;;;;;;;0.10;0.10;;;;;;;;;;5009400;28;20059;-59
2022/06/11 12:20:00;;;;;;;0.10;0.03;;;;;;;;;;5009390;28;20054;-59
2022/06/11 12:22:38;;;;;;;0.00;0.00;;;;;;;;;;5008660;28;20105;-59
2022/06/11 12:25:19;;;;;;;0.30;0.28;;;;;;;;;;5008169;28;20065;-59
2022/06/11 12:27:48;;;;;;;0.03;0.03;;;;;;;;;;5008558;28;20051;-59
2022/06/11 12:30:24;;;;;;;0.38;0.38;;;;;;;;;;5007911;28;20552;-59
2022/06/11 12:32:51;;;;;;;0.65;0.43;;;;;;;;;;5009411;28;20058;-58
2022/06/11 12:35:23;;;;;;;0.00;0.00;;;;;;;;;;5008783;28;20054;-59
2022/06/11 12:37:59;;;;;;;0.00;0.00;;;;;;;;;;5008938;28;20506;-59
2022/06/11 12:40:28;;;;;;;0.00;0.00;;;;;;;;;;5008227;28;20086;-59
2022/06/11 12:43:14;;;;;;;0.00;0.00;;;;;;;;;;5010375;28;20055;-59
2022/06/11 12:45:40;;;;;;;0.08;0.08;;;;;;;;;;5012307;28;20089;-59
2022/06/11 12:48:39;;;;;;;0.00;0.00;;;;;;;;;;5012135;28;20512;-59
2022/06/11 12:51:11;;;;;;;2.13;1.08;;;;;;;;;;5011340;28;20086;-59
2022/06/11 12:53:41;;;;;;;0.00;0.00;;;;;;;;;;5012426;28;20055;-59
2022/06/11 12:56:17;;;;;;;0.25;0.10;;;;;;;;;;5011566;28;20124;-58
2022/06/11 12:58:55;;;;;;;0.00;0.00;;;;;;;;;;5011445;28;20057;-59
2022/06/11 13:01:37;;;;;;;0.98;0.63;;;;;;;;;;5011928;28;20063;-59
2022/06/11 13:04:23;;;;;;;0.00;0.00;;;;;;;;;;5012442;28;20050;-59
2022/06/11 13:06:57;;;;;;;0.25;0.25;;;;;;;;;;5011952;28;20062;-59
2022/06/11 13:09:36;;;;;;;1.20;0.90;;;;;;;;;;5011807;28;20050;-59
2022/06/11 13:12:14;;;;;;;0.22;0.20;;;;;;;;;;5011742;28;20322;-58
2022/06/11 13:14:50;;;;;;;0.20;0.20;;;;;;;;;;5011078;28;20210;-59
2022/06/11 13:17:24;;;;;;;0.15;0.15;;;;;;;;;;5012118;28;20109;-59
2022/06/11 13:20:06;;;;;;;0.15;0.15;;;;;;;;;;5011526;28;20497;-59
2022/06/11 13:22:40;;;;;;;0.03;0.03;;;;;;;;;;5011400;28;20090;-58
2022/06/11 13:25:23;;;;;;;0.10;0.10;;;;;;;;;;5012224;28;20054;-59
2022/06/11 13:27:55;;;;;;;0.10;0.10;;;;;;;;;;5011718;28;20488;-59
2022/06/11 13:30:34;;;;;;;0.00;0.00;;;;;;;;;;5011794;28;20085;-59
2022/06/11 13:33:07;;;;;;;0.00;0.00;;;;;;;;;;5010239;28;20046;-59
2022/06/11 13:35:48;;;;;;;0.10;0.10;;;;;;;;;;5011672;28;20105;-59
2022/06/11 13:38:33;;;;;;;0.00;0.00;;;;;;;;;;5011321;28;20113;-58
2022/06/11 13:41:00;;;;;;;0.10;0.10;;;;;;;;;;5010913;28;20050;-59
2022/06/11 13:43:35;;;;;;;0.20;0.10;;;;;;;;;;5011210;28;20062;-59
2022/06/11 13:46:15;;;;;;;0.00;0.00;;;;;;;;;;5010804;28;20061;-59
2022/06/11 13:48:44;;;;;;;0.00;0.00;;;;;;;;;;5011361;28;20113;-59
2022/06/11 13:51:16;;;;;;;0.10;0.10;;;;;;;;;;5010122;28;20598;-59
2022/06/11 13:56:35;;;;;;;0.08;0.08;;;;;;;;;;5010937;28;20086;-59
2022/06/11 13:59:07;;;;;;;0.50;0.50;;;;;;;;;;5010998;28;20117;-59
2022/06/11 14:01:43;;;;;;;0.47;0.47;;;;;;;;;;5011281;28;20058;-59
2022/06/11 14:04:25;;;;;;;0.15;0.15;;;;;;;;;;5010254;28;20509;-59
2022/06/11 14:06:53;;;;;;;0.05;0.05;;;;;;;;;;5010796;28;20054;-59
2022/06/11 14:12:33;;;;;;;1.55;0.40;;;;;;;;;;5011117;28;20588;-59
2022/06/11 14:15:29;;;;;;;0.00;0.00;;;;;;;;;;5028632;28;20054;-58
2022/06/11 14:17:58;;;;;;;0.00;0.00;;;;;;;;;;5029007;28;20449;-59
2022/06/11 14:20:33;;;;;;;0.10;0.10;;;;;;;;;;5030659;28;20555;-59
2022/06/11 14:23:03;;;;;;;0.00;0.00;;;;;;;;;;5030069;28;20054;-59
2022/06/11 14:25:41;;;;;;;0.10;0.10;;;;;;;;;;5030566;28;20132;-59
2022/06/11 14:28:07;;;;;;;;;;;;;;;;;;5030523;28;20054;-59
2022/06/11 14:30:37;;;;;;;0.05;0.05;;;;;;;;;;5029503;28;44814;-59
2022/06/11 14:33:22;;;;;;;0.00;0.00;;;;;;;;;;5030682;28;20061;-59
2022/06/11 14:35:48;;;;;;;0.00;0.00;;;;;;;;;;5030694;28;20153;-58
2022/06/11 14:38:17;;;;;;;0.00;0.00;;;;;;;;;;5029379;28;20476;-58
2022/06/11 14:40:44;;;;;;;0.17;0.17;;;;;;;;;;5029686;28;20116;-58
2022/06/11 14:43:13;;;;;;;0.08;0.08;;;;;;;;;;5030271;28;20049;-58
2022/06/11 14:45:45;;;;;;;0.00;0.00;;;;;;;;;;5029837;28;20054;-59
2022/06/11 14:48:13;;;;;;;0.45;0.40;;;;;;;;;;5030095;28;20484;-58
2022/06/11 14:50:39;;;;;;;;;;;;;;;;;;5030030;28;20112;-59
2022/06/11 14:53:11;;;;;;;0.25;0.25;;;;;;;;;;5028431;28;44894;-58
2022/06/11 14:55:38;;;;;;;1.85;0.28;;;;;;;;;;5030369;28;20054;-59
2022/06/11 14:58:25;;;;;;;0.15;0.15;;;;;;;;;;5030300;28;20058;-59
2022/06/11 15:00:54;;;;;;;0.00;0.00;;;;;;;;;;5028964;28;20116;-58
2022/06/11 15:03:28;;;;;;;0.77;0.75;;;;;;;;;;5029949;28;20058;-58
2022/06/11 15:06:01;;;;;;;0.00;0.00;;;;;;;;;;5028992;28;20116;-59
2022/06/11 15:08:51;;;;;;;0.00;0.00;;;;;;;;;;5029781;28;20054;-58
2022/06/11 15:11:18;;;;;;;0.00;0.00;;;;;;;;;;5030236;28;20054;-58
2022/06/11 15:14:03;;;;;;;0.00;0.00;;;;;;;;;;5029622;28;20145;-58
2022/06/11 15:16:33;;;;;;;0.95;0.80;;;;;;;;;;5025473;28;20057;-58